Time;durP1;ratioP1;P1;durP2;ratioP2;P2;SDS_P1;SDS_P2;PMS_P1;PMS_P2;Temp;Humidity;BMP_temperature;BMP_pressure;BME280_temperature;BME280_humidity;BME280_pressure;Samples;Min_cycle;Max_cycle;Signal;HPM_P1;HPM_P2
2021/09/19 00:01:46;;;;;;;5.45;4.95;;;;;;;;;;5095897;28;20024;-64
2021/09/19 00:04:12;;;;;;;5.55;5.15;;;;;;;;;;5096172;28;20429;-63
2021/09/19 00:06:37;;;;;;;6.93;5.28;;;;;;;;;;5094918;28;20023;-64
2021/09/19 00:09:03;;;;;;;7.22;6.38;;;;;;;;;;5096401;28;20028;-64
2021/09/19 00:11:28;;;;;;;7.15;6.53;;;;;;;;;;5096244;28;20470;-64
2021/09/19 00:13:54;;;;;;;6.95;6.25;;;;;;;;;;5096098;28;20035;-64
2021/09/19 00:16:20;;;;;;;6.68;5.75;;;;;;;;;;5096195;28;20125;-64
2021/09/19 00:18:45;;;;;;;5.32;4.82;;;;;;;;;;5096093;28;20495;-64
2021/09/19 00:21:11;;;;;;;7.15;5.60;;;;;;;;;;5096205;28;20474;-64
2021/09/19 00:23:37;;;;;;;7.00;6.30;;;;;;;;;;5096105;28;20119;-65
2021/09/19 00:26:03;;;;;;;6.53;5.78;;;;;;;;;;5096106;28;20118;-65
2021/09/19 00:28:28;;;;;;;5.50;5.03;;;;;;;;;;5094674;28;20114;-65
2021/09/19 00:30:54;;;;;;;5.90;4.75;;;;;;;;;;5095884;28;20024;-65
2021/09/19 00:33:20;;;;;;;5.82;5.25;;;;;;;;;;5095614;28;20488;-65
2021/09/19 00:35:45;;;;;;;4.85;4.40;;;;;;;;;;5095522;28;20111;-65
2021/09/19 00:38:11;;;;;;;4.95;4.55;;;;;;;;;;5095561;28;20020;-65
2021/09/19 00:40:37;;;;;;;5.13;4.63;;;;;;;;;;5096097;28;20039;-65
2021/09/19 00:43:02;;;;;;;4.65;3.70;;;;;;;;;;5095261;28;20514;-64
2021/09/19 00:45:28;;;;;;;4.93;3.60;;;;;;;;;;5095490;28;20024;-62
2021/09/19 00:47:54;;;;;;;3.70;3.40;;;;;;;;;;5095544;28;20035;-63
2021/09/19 00:50:21;;;;;;;3.70;3.40;;;;;;;;;;5095259;28;20028;-63
2021/09/19 00:52:47;;;;;;;4.05;3.75;;;;;;;;;;5095029;28;20498;-64
2021/09/19 00:55:14;;;;;;;3.95;3.65;;;;;;;;;;5094950;28;20039;-64
2021/09/19 00:57:41;;;;;;;5.25;3.30;;;;;;;;;;5095254;28;20023;-64
2021/09/19 01:00:07;;;;;;;4.13;3.55;;;;;;;;;;5095149;28;20410;-64
2021/09/19 01:02:34;;;;;;;3.90;3.60;;;;;;;;;;5095287;28;20483;-63
2021/09/19 01:04:59;;;;;;;3.83;3.53;;;;;;;;;;5095305;28;20471;-63
2021/09/19 01:07:25;;;;;;;5.13;4.60;;;;;;;;;;5095264;28;20094;-65
2021/09/19 01:09:51;;;;;;;5.30;4.80;;;;;;;;;;5094812;28;20026;-65
2021/09/19 01:12:19;;;;;;;5.35;4.93;;;;;;;;;;5094763;28;20036;-63
2021/09/19 01:14:47;;;;;;;8.35;4.90;;;;;;;;;;5095032;28;20031;-61
2021/09/19 01:17:13;;;;;;;5.85;5.35;;;;;;;;;;5094803;28;20074;-65
2021/09/19 01:19:39;;;;;;;5.93;4.93;;;;;;;;;;5094568;28;20467;-64
2021/09/19 01:22:05;;;;;;;5.80;5.20;;;;;;;;;;5094530;28;20074;-66
2021/09/19 01:24:31;;;;;;;5.75;5.25;;;;;;;;;;5093595;28;20050;-66
2021/09/19 01:26:56;;;;;;;5.68;5.18;;;;;;;;;;5094676;28;20466;-63
2021/09/19 01:29:22;;;;;;;7.18;5.82;;;;;;;;;;5093360;28;20016;-63
2021/09/19 01:31:48;;;;;;;6.07;5.47;;;;;;;;;;5094888;28;20043;-63
2021/09/19 01:34:14;;;;;;;5.97;5.10;;;;;;;;;;5094526;28;20042;-63
2021/09/19 01:36:40;;;;;;;4.43;4.00;;;;;;;;;;5093266;28;20535;-63
2021/09/19 01:39:07;;;;;;;4.10;3.60;;;;;;;;;;5094997;28;20012;-63
2021/09/19 01:41:33;;;;;;;5.28;4.20;;;;;;;;;;5094437;28;20032;-63
2021/09/19 01:44:00;;;;;;;3.97;3.67;;;;;;;;;;5093922;28;20107;-63
2021/09/19 01:46:25;;;;;;;4.57;4.18;;;;;;;;;;5094536;28;20126;-63
2021/09/19 01:48:51;;;;;;;4.05;3.63;;;;;;;;;;5093880;28;20475;-63
2021/09/19 01:51:17;;;;;;;4.97;4.30;;;;;;;;;;5093441;28;20085;-63
2021/09/19 01:53:42;;;;;;;3.75;3.47;;;;;;;;;;5092876;28;20016;-63
2021/09/19 01:56:08;;;;;;;5.03;4.13;;;;;;;;;;5094556;28;20024;-63
2021/09/19 01:58:43;;;;;;;3.83;3.50;;;;;;;;;;5094299;28;20020;-63
2021/09/19 02:01:09;;;;;;;4.10;3.70;;;;;;;;;;5094300;28;20032;-63
2021/09/19 02:03:40;;;;;;;4.07;3.78;;;;;;;;;;5094115;28;20026;-63
2021/09/19 02:06:06;;;;;;;3.75;3.42;;;;;;;;;;5093924;28;20524;-64
2021/09/19 02:08:35;;;;;;;4.63;4.22;;;;;;;;;;5093858;28;20098;-63
2021/09/19 02:11:05;;;;;;;3.80;3.40;;;;;;;;;;5093825;28;20050;-63
2021/09/19 02:13:31;;;;;;;3.85;3.65;;;;;;;;;;5093613;28;20039;-64
2021/09/19 02:15:57;;;;;;;4.32;4.03;;;;;;;;;;5093553;28;20122;-64
2021/09/19 02:18:23;;;;;;;3.90;3.60;;;;;;;;;;5093168;28;20062;-64
2021/09/19 02:20:48;;;;;;;4.78;3.53;;;;;;;;;;5093750;28;20031;-65
2021/09/19 02:23:13;;;;;;;3.97;3.42;;;;;;;;;;5094164;28;20027;-65
2021/09/19 02:25:39;;;;;;;3.80;3.50;;;;;;;;;;5092749;28;20050;-65
2021/09/19 02:28:05;;;;;;;4.47;3.33;;;;;;;;;;5093573;28;20020;-64
2021/09/19 02:30:30;;;;;;;3.60;3.30;;;;;;;;;;5093294;28;20104;-64
2021/09/19 02:32:56;;;;;;;4.72;4.18;;;;;;;;;;5092153;28;20107;-64
2021/09/19 02:35:21;;;;;;;3.88;3.58;;;;;;;;;;5093714;28;20044;-64
2021/09/19 02:37:47;;;;;;;3.30;3.05;;;;;;;;;;5093558;28;20434;-64
2021/09/19 02:40:13;;;;;;;5.47;3.55;;;;;;;;;;5093628;28;20024;-65
2021/09/19 02:42:39;;;;;;;3.83;3.47;;;;;;;;;;5092780;28;20407;-64
2021/09/19 02:45:06;;;;;;;4.30;3.90;;;;;;;;;;5093838;28;20483;-64
2021/09/19 02:47:31;;;;;;;4.88;4.05;;;;;;;;;;5093881;28;20073;-61
2021/09/19 02:49:57;;;;;;;4.55;4.03;;;;;;;;;;5092113;28;20028;-61
2021/09/19 02:52:22;;;;;;;4.90;4.35;;;;;;;;;;5093008;28;20024;-61
2021/09/19 02:54:48;;;;;;;4.68;4.22;;;;;;;;;;5093521;28;20042;-63
2021/09/19 02:57:14;;;;;;;5.20;4.72;;;;;;;;;;5093242;28;20536;-64
2021/09/19 02:59:40;;;;;;;5.90;5.30;;;;;;;;;;5093589;28;20028;-64
2021/09/19 03:02:06;;;;;;;6.43;4.90;;;;;;;;;;5093640;28;20103;-64
2021/09/19 03:04:32;;;;;;;5.53;5.00;;;;;;;;;;5093487;28;20036;-65
2021/09/19 03:06:58;;;;;;;5.70;5.20;;;;;;;;;;5093455;28;20016;-64
2021/09/19 03:09:24;;;;;;;5.63;5.13;;;;;;;;;;5093217;28;20043;-64
2021/09/19 03:11:49;;;;;;;4.07;3.75;;;;;;;;;;5093047;28;20024;-64
2021/09/19 03:14:15;;;;;;;5.80;4.90;;;;;;;;;;5093231;28;20024;-64
2021/09/19 03:16:40;;;;;;;7.45;5.32;;;;;;;;;;5093168;28;20024;-64
2021/09/19 03:19:06;;;;;;;5.78;4.75;;;;;;;;;;5093296;28;20032;-63
2021/09/19 03:21:31;;;;;;;6.10;5.50;;;;;;;;;;5092992;28;20031;-63
2021/09/19 03:23:57;;;;;;;5.10;4.35;;;;;;;;;;5093057;28;20032;-63
2021/09/19 03:26:22;;;;;;;6.68;5.45;;;;;;;;;;5093246;28;20024;-64
2021/09/19 03:28:48;;;;;;;4.93;4.53;;;;;;;;;;5092715;28;20034;-64
2021/09/19 03:31:13;;;;;;;5.72;5.20;;;;;;;;;;5095802;28;20020;-64
2021/09/19 03:33:39;;;;;;;5.25;4.75;;;;;;;;;;5096864;28;20111;-63
2021/09/19 03:36:04;;;;;;;4.90;4.47;;;;;;;;;;5096425;28;20379;-64
2021/09/19 03:38:30;;;;;;;5.25;4.75;;;;;;;;;;5096979;28;20047;-64
2021/09/19 03:40:58;;;;;;;6.05;4.82;;;;;;;;;;5096687;28;20028;-63
2021/09/19 03:43:24;;;;;;;5.18;4.55;;;;;;;;;;5096277;28;20063;-64
2021/09/19 03:45:49;;;;;;;5.32;4.47;;;;;;;;;;5096993;28;20024;-64
2021/09/19 03:48:15;;;;;;;5.40;4.68;;;;;;;;;;5096814;28;20028;-64
2021/09/19 03:50:41;;;;;;;4.75;4.32;;;;;;;;;;5096625;28;20020;-64
2021/09/19 03:53:06;;;;;;;5.53;4.95;;;;;;;;;;5096792;28;20394;-64
2021/09/19 03:55:34;;;;;;;5.07;4.63;;;;;;;;;;5096680;28;20016;-63
2021/09/19 03:58:00;;;;;;;5.28;4.75;;;;;;;;;;5096489;28;20093;-63
2021/09/19 04:00:26;;;;;;;4.57;4.22;;;;;;;;;;5078153;28;20356;-63
2021/09/19 04:02:52;;;;;;;5.25;4.45;;;;;;;;;;5096460;28;20081;-63
2021/09/19 04:05:17;;;;;;;4.75;4.28;;;;;;;;;;5096245;28;20028;-64
2021/09/19 04:07:43;;;;;;;4.95;4.45;;;;;;;;;;5096251;28;20035;-64
2021/09/19 04:10:09;;;;;;;5.38;4.88;;;;;;;;;;5095963;28;20099;-64
2021/09/19 04:12:36;;;;;;;5.07;4.53;;;;;;;;;;5095897;28;20028;-64
2021/09/19 04:15:01;;;;;;;5.68;4.45;;;;;;;;;;5096228;28;20041;-62
2021/09/19 04:17:27;;;;;;;5.43;4.90;;;;;;;;;;5096029;28;20020;-61
2021/09/19 04:19:53;;;;;;;4.82;4.25;;;;;;;;;;5094693;28;20351;-61
2021/09/19 04:22:18;;;;;;;4.72;4.32;;;;;;;;;;5096091;28;20035;-63
2021/09/19 04:24:44;;;;;;;4.70;4.30;;;;;;;;;;5095956;28;20480;-64
2021/09/19 04:27:10;;;;;;;4.43;4.03;;;;;;;;;;5094826;28;20039;-63
2021/09/19 04:29:35;;;;;;;5.18;4.55;;;;;;;;;;5095796;28;20013;-64
2021/09/19 04:32:03;;;;;;;5.10;4.57;;;;;;;;;;5095564;28;20119;-64
2021/09/19 04:34:28;;;;;;;4.85;4.35;;;;;;;;;;5095614;28;20020;-63
2021/09/19 04:36:55;;;;;;;5.28;4.60;;;;;;;;;;5095666;28;20039;-64
2021/09/19 04:39:20;;;;;;;4.35;3.67;;;;;;;;;;5095594;28;20024;-65
2021/09/19 04:41:46;;;;;;;4.35;3.95;;;;;;;;;;5095300;28;20036;-64
2021/09/19 04:44:12;;;;;;;4.43;4.03;;;;;;;;;;5095551;28;20437;-64
2021/09/19 04:46:37;;;;;;;5.18;4.13;;;;;;;;;;5093611;28;20032;-64
2021/09/19 04:49:03;;;;;;;4.60;4.13;;;;;;;;;;5095455;28;20095;-64
2021/09/19 04:51:29;;;;;;;5.40;4.93;;;;;;;;;;5093796;28;20028;-64
2021/09/19 04:53:55;;;;;;;5.20;4.68;;;;;;;;;;5095286;28;20077;-64
2021/09/19 04:56:21;;;;;;;5.82;4.70;;;;;;;;;;5095237;28;20021;-64
2021/09/19 04:58:46;;;;;;;4.68;4.03;;;;;;;;;;5095290;28;20026;-64
2021/09/19 05:01:12;;;;;;;4.45;4.07;;;;;;;;;;5095263;28;20024;-64
2021/09/19 05:03:38;;;;;;;5.03;4.63;;;;;;;;;;5095125;28;20070;-64
2021/09/19 05:06:03;;;;;;;5.22;4.72;;;;;;;;;;5094965;28;20019;-65
2021/09/19 05:08:31;;;;;;;5.18;4.57;;;;;;;;;;5093941;28;20008;-65
2021/09/19 05:10:57;;;;;;;5.22;4.63;;;;;;;;;;5093841;28;20031;-65
2021/09/19 05:13:23;;;;;;;5.22;4.72;;;;;;;;;;5093633;28;20024;-64
2021/09/19 05:15:48;;;;;;;7.65;5.88;;;;;;;;;;5094526;28;20064;-64
2021/09/19 05:18:14;;;;;;;5.53;4.78;;;;;;;;;;5094518;28;20027;-64
2021/09/19 05:20:39;;;;;;;7.82;6.80;;;;;;;;;;5094519;28;20356;-65
2021/09/19 05:23:08;;;;;;;6.88;5.30;;;;;;;;;;5093494;28;20357;-65
2021/09/19 05:25:33;;;;;;;8.10;6.30;;;;;;;;;;5093888;28;20047;-65
2021/09/19 05:27:59;;;;;;;5.82;5.20;;;;;;;;;;5094339;28;20024;-62
2021/09/19 05:30:24;;;;;;;5.47;4.97;;;;;;;;;;5094262;28;20046;-66
2021/09/19 05:32:50;;;;;;;6.00;5.40;;;;;;;;;;5094335;28;20020;-65
2021/09/19 05:35:16;;;;;;;5.78;5.18;;;;;;;;;;5094244;28;20031;-65
2021/09/19 05:37:41;;;;;;;5.13;4.63;;;;;;;;;;5093090;28;20020;-64
2021/09/19 05:40:08;;;;;;;5.10;4.65;;;;;;;;;;5094465;28;20074;-65
2021/09/19 05:42:33;;;;;;;6.82;4.78;;;;;;;;;;5094201;28;20012;-65
2021/09/19 05:44:59;;;;;;;4.32;3.88;;;;;;;;;;5093222;28;20113;-64
2021/09/19 05:47:24;;;;;;;4.68;3.38;;;;;;;;;;5094523;28;20188;-65
2021/09/19 05:49:50;;;;;;;7.45;3.67;;;;;;;;;;5094147;28;20032;-65
2021/09/19 05:52:15;;;;;;;3.90;3.60;;;;;;;;;;5093345;28;20486;-64
2021/09/19 05:54:41;;;;;;;3.60;3.38;;;;;;;;;;5093927;28;20379;-64
2021/09/19 05:57:06;;;;;;;5.55;4.10;;;;;;;;;;5094101;28;20008;-64
2021/09/19 05:59:32;;;;;;;4.30;3.22;;;;;;;;;;5094042;28;20042;-62
2021/09/19 06:02:00;;;;;;;3.45;3.15;;;;;;;;;;5094134;28;20020;-64
2021/09/19 06:04:25;;;;;;;4.05;3.65;;;;;;;;;;5093937;28;20073;-64
2021/09/19 06:06:51;;;;;;;3.85;3.45;;;;;;;;;;5093755;28;20058;-64
2021/09/19 06:09:17;;;;;;;4.95;3.78;;;;;;;;;;5092439;28;20081;-64
2021/09/19 06:11:44;;;;;;;3.95;3.50;;;;;;;;;;5093750;28;20471;-64
2021/09/19 06:14:09;;;;;;;2.97;2.78;;;;;;;;;;5093428;28;20024;-64
2021/09/19 06:16:35;;;;;;;3.30;3.05;;;;;;;;;;5094072;28;20143;-65
2021/09/19 06:19:01;;;;;;;3.35;3.05;;;;;;;;;;5093612;28;20055;-64
2021/09/19 06:21:27;;;;;;;4.68;3.50;;;;;;;;;;5093299;28;20062;-64
2021/09/19 06:23:52;;;;;;;3.97;3.67;;;;;;;;;;5093273;28;20433;-64
2021/09/19 06:26:18;;;;;;;3.40;3.17;;;;;;;;;;5092306;28;20016;-65
2021/09/19 06:28:43;;;;;;;3.30;3.10;;;;;;;;;;5093460;28;20040;-64
2021/09/19 06:31:09;;;;;;;4.78;3.33;;;;;;;;;;5093594;28;20478;-64
2021/09/19 06:33:35;;;;;;;3.33;3.03;;;;;;;;;;5092103;28;20032;-64
2021/09/19 06:36:00;;;;;;;3.60;3.40;;;;;;;;;;5093697;28;20008;-64
2021/09/19 06:38:26;;;;;;;4.55;3.28;;;;;;;;;;5092822;28;20032;-62
2021/09/19 06:40:52;;;;;;;4.07;3.67;;;;;;;;;;5083781;28;20069;-62
2021/09/19 06:43:17;;;;;;;3.55;3.25;;;;;;;;;;5089770;28;20051;-64
2021/09/19 06:45:43;;;;;;;3.53;3.22;;;;;;;;;;5090356;28;20039;-64
2021/09/19 06:48:14;;;;;;;3.67;3.28;;;;;;;;;;5090348;28;20511;-64
2021/09/19 06:50:40;;;;;;;3.85;3.13;;;;;;;;;;5087917;28;20360;-64
2021/09/19 06:53:06;;;;;;;3.60;3.10;;;;;;;;;;5090468;28;20031;-64
2021/09/19 06:55:31;;;;;;;3.47;3.10;;;;;;;;;;5090110;28;20024;-64
2021/09/19 06:57:57;;;;;;;3.40;3.10;;;;;;;;;;5090116;28;20044;-64
2021/09/19 07:00:23;;;;;;;3.22;3.03;;;;;;;;;;5090240;28;20036;-64
2021/09/19 07:02:48;;;;;;;4.50;3.30;;;;;;;;;;5090317;28;20104;-64
2021/09/19 07:05:14;;;;;;;3.67;2.85;;;;;;;;;;5093469;28;20479;-64
2021/09/19 07:07:39;;;;;;;3.03;2.83;;;;;;;;;;5092972;28;20035;-64
2021/09/19 07:10:05;;;;;;;2.97;2.70;;;;;;;;;;5094198;28;20024;-63
2021/09/19 07:12:31;;;;;;;3.20;3.00;;;;;;;;;;5092723;28;20441;-63
2021/09/19 07:14:56;;;;;;;4.43;3.13;;;;;;;;;;5092360;28;20036;-63
2021/09/19 07:17:22;;;;;;;3.50;3.20;;;;;;;;;;5093803;28;20020;-63
2021/09/19 07:19:47;;;;;;;3.53;3.05;;;;;;;;;;5093597;28;20020;-63
2021/09/19 07:22:13;;;;;;;4.18;2.53;;;;;;;;;;5093684;28;20586;-63
2021/09/19 07:24:38;;;;;;;3.90;3.60;;;;;;;;;;5094111;28;20395;-63
2021/09/19 07:27:04;;;;;;;7.00;3.80;;;;;;;;;;5094184;28;20122;-63
2021/09/19 07:29:31;;;;;;;3.30;3.10;;;;;;;;;;5093976;28;20189;-63
2021/09/19 07:31:56;;;;;;;5.55;3.45;;;;;;;;;;5093776;28;20020;-63
2021/09/19 07:34:24;;;;;;;3.50;2.90;;;;;;;;;;5093534;28;20387;-63
2021/09/19 07:36:51;;;;;;;2.92;2.65;;;;;;;;;;5093505;28;20474;-63
2021/09/19 07:39:16;;;;;;;3.10;2.85;;;;;;;;;;5093495;28;20020;-63
2021/09/19 07:41:42;;;;;;;3.95;3.20;;;;;;;;;;5093940;28;20462;-63
2021/09/19 07:44:08;;;;;;;4.15;3.30;;;;;;;;;;5091663;28;20051;-64
2021/09/19 07:46:33;;;;;;;3.63;3.33;;;;;;;;;;5092329;28;20055;-64
2021/09/19 07:48:59;;;;;;;3.15;2.78;;;;;;;;;;5093390;28;20035;-64
2021/09/19 07:51:25;;;;;;;4.78;3.47;;;;;;;;;;5092959;28;20038;-64
2021/09/19 07:53:51;;;;;;;6.45;4.53;;;;;;;;;;5093341;28;20123;-64
2021/09/19 07:56:16;;;;;;;3.58;3.28;;;;;;;;;;5093204;28;20027;-64
2021/09/19 07:58:42;;;;;;;5.07;3.25;;;;;;;;;;5091614;28;20390;-64
2021/09/19 08:01:08;;;;;;;4.90;2.95;;;;;;;;;;5093274;28;20099;-64
2021/09/19 08:03:33;;;;;;;4.22;3.45;;;;;;;;;;5093373;28;20027;-64
2021/09/19 08:05:58;;;;;;;3.53;2.60;;;;;;;;;;5093002;28;20024;-64
2021/09/19 08:08:24;;;;;;;4.35;3.28;;;;;;;;;;5093142;28;20024;-64
2021/09/19 08:10:50;;;;;;;3.50;3.20;;;;;;;;;;5091000;28;20361;-64
2021/09/19 08:13:16;;;;;;;6.38;3.35;;;;;;;;;;5092886;28;20036;-64
2021/09/19 08:15:42;;;;;;;3.45;2.80;;;;;;;;;;5091626;28;20074;-64
2021/09/19 08:18:08;;;;;;;3.28;2.60;;;;;;;;;;5093098;28;20707;-64
2021/09/19 08:20:33;;;;;;;3.75;3.00;;;;;;;;;;5093018;28;20027;-64
2021/09/19 08:22:59;;;;;;;4.13;3.10;;;;;;;;;;5092945;28;20039;-64
2021/09/19 08:25:25;;;;;;;3.67;3.20;;;;;;;;;;5092917;28;20024;-64
2021/09/19 08:27:51;;;;;;;3.15;2.95;;;;;;;;;;5090661;28;20036;-64
2021/09/19 08:30:17;;;;;;;3.10;2.90;;;;;;;;;;5092758;28;20032;-64
2021/09/19 08:32:43;;;;;;;4.50;3.60;;;;;;;;;;5092584;28;20111;-63
2021/09/19 08:35:10;;;;;;;3.38;3.00;;;;;;;;;;5092720;28;20108;-64
2021/09/19 08:37:35;;;;;;;3.45;2.78;;;;;;;;;;5092485;28;20074;-64
2021/09/19 08:40:01;;;;;;;3.55;3.03;;;;;;;;;;5092447;28;20012;-64
2021/09/19 08:42:27;;;;;;;3.05;2.75;;;;;;;;;;5092397;28;20035;-64
2021/09/19 08:44:53;;;;;;;5.88;3.17;;;;;;;;;;5082813;28;20565;-64
2021/09/19 08:47:20;;;;;;;4.25;2.95;;;;;;;;;;5092036;28;20073;-64
2021/09/19 08:49:46;;;;;;;2.67;2.47;;;;;;;;;;5091438;28;20494;-64
2021/09/19 08:52:12;;;;;;;2.80;2.60;;;;;;;;;;5090044;28;20020;-64
2021/09/19 08:54:38;;;;;;;3.00;2.70;;;;;;;;;;5092460;28;20024;-64
2021/09/19 08:57:04;;;;;;;2.53;2.25;;;;;;;;;;5092253;28;20027;-64
2021/09/19 08:59:43;;;;;;;2.60;2.40;;;;;;;;;;5090605;28;20020;-64
2021/09/19 09:02:08;;;;;;;3.30;2.70;;;;;;;;;;5092173;28;20123;-63
2021/09/19 09:04:36;;;;;;;3.88;2.40;;;;;;;;;;5092031;28;20107;-64
2021/09/19 09:07:02;;;;;;;4.05;2.90;;;;;;;;;;5091442;28;20077;-61
2021/09/19 09:09:27;;;;;;;3.15;2.85;;;;;;;;;;5089328;28;20028;-64
2021/09/19 09:12:07;;;;;;;3.33;2.75;;;;;;;;;;5091176;28;20083;-64
2021/09/19 09:14:58;;;;;;;2.92;2.72;;;;;;;;;;5091021;28;20023;-64
2021/09/19 09:17:25;;;;;;;2.80;2.30;;;;;;;;;;5086798;28;20641;-64
2021/09/19 09:19:51;;;;;;;2.90;2.70;;;;;;;;;;5090916;28;20119;-64
2021/09/19 09:22:21;;;;;;;2.58;2.30;;;;;;;;;;5090881;28;20031;-64
2021/09/19 09:25:02;;;;;;;2.95;2.50;;;;;;;;;;5090976;28;20085;-64
2021/09/19 09:27:28;;;;;;;2.95;1.95;;;;;;;;;;5090623;28;20441;-64
2021/09/19 09:30:06;;;;;;;4.18;2.85;;;;;;;;;;5090238;28;20046;-64
2021/09/19 09:32:47;;;;;;;2.63;2.30;;;;;;;;;;5090295;28;20483;-64
2021/09/19 09:35:12;;;;;;;;;;;;;;;;;;5088115;28;20021;-64
2021/09/19 09:37:41;;;;;;;3.05;2.67;;;;;;;;;;5090306;28;19957;-62
2021/09/19 09:40:16;;;;;;;3.65;2.88;;;;;;;;;;5089931;28;20016;-62
2021/09/19 09:42:59;;;;;;;2.40;2.30;;;;;;;;;;5088720;28;20066;-61
2021/09/19 09:45:25;;;;;;;3.05;2.13;;;;;;;;;;5091752;28;20075;-61
2021/09/19 09:47:51;;;;;;;5.53;2.92;;;;;;;;;;5091339;28;20417;-62
2021/09/19 09:50:23;;;;;;;3.55;2.60;;;;;;;;;;5091154;28;20036;-62
2021/09/19 09:52:48;;;;;;;2.88;2.67;;;;;;;;;;5090908;28;20760;-60
2021/09/19 09:55:14;;;;;;;2.78;2.58;;;;;;;;;;5091135;28;20097;-60
2021/09/19 09:57:52;;;;;;;3.28;2.08;;;;;;;;;;5090956;28;20130;-60
2021/09/19 10:00:18;;;;;;;2.97;2.40;;;;;;;;;;5091379;28;20064;-59
2021/09/19 10:02:48;;;;;;;3.70;2.70;;;;;;;;;;5093921;28;20058;-60
2021/09/19 10:05:14;;;;;;;3.33;2.97;;;;;;;;;;5094636;28;20032;-59
2021/09/19 10:07:41;;;;;;;3.25;2.33;;;;;;;;;;5093953;28;20024;-60
2021/09/19 10:10:08;;;;;;;2.80;2.50;;;;;;;;;;5091706;28;20038;-60
2021/09/19 10:12:34;;;;;;;3.08;2.40;;;;;;;;;;5093280;28;20020;-59
2021/09/19 10:14:59;;;;;;;2.50;2.30;;;;;;;;;;5092291;28;20075;-59
2021/09/19 10:17:27;;;;;;;3.75;2.80;;;;;;;;;;5093136;28;20471;-59
2021/09/19 10:19:53;;;;;;;3.38;2.83;;;;;;;;;;5091618;28;20483;-59
2021/09/19 10:22:32;;;;;;;4.05;2.53;;;;;;;;;;5092903;28;20074;-60
2021/09/19 10:24:58;;;;;;;2.92;2.30;;;;;;;;;;5093013;28;20016;-62
2021/09/19 10:27:28;;;;;;;3.88;2.50;;;;;;;;;;5093441;28;20483;-63
2021/09/19 10:30:01;;;;;;;3.03;2.83;;;;;;;;;;5093212;28;20066;-62
2021/09/19 10:32:39;;;;;;;4.85;2.38;;;;;;;;;;5093276;28;20536;-62
2021/09/19 10:35:27;;;;;;;3.72;2.33;;;;;;;;;;5093395;28;20043;-62
2021/09/19 10:38:01;;;;;;;5.72;2.53;;;;;;;;;;5085168;28;20042;-62
2021/09/19 10:40:37;;;;;;;2.53;2.33;;;;;;;;;;5092813;28;20027;-62
2021/09/19 10:43:08;;;;;;;2.35;2.15;;;;;;;;;;5092737;28;20040;-62
2021/09/19 10:45:38;;;;;;;3.75;2.78;;;;;;;;;;5093592;28;20027;-62
2021/09/19 10:48:14;;;;;;;2.47;2.30;;;;;;;;;;5093155;28;20020;-62
2021/09/19 10:50:40;;;;;;;2.97;2.35;;;;;;;;;;5093393;28;20077;-62
2021/09/19 10:53:22;;;;;;;3.00;2.80;;;;;;;;;;5093070;28;20016;-62
2021/09/19 10:55:49;;;;;;;2.60;2.40;;;;;;;;;;5093160;28;20031;-62
2021/09/19 10:58:26;;;;;;;2.67;2.47;;;;;;;;;;5093186;28;20017;-60
2021/09/19 11:01:10;;;;;;;2.97;2.78;;;;;;;;;;5092005;28;20028;-62
2021/09/19 11:03:36;;;;;;;6.13;2.67;;;;;;;;;;5093001;28;20036;-61
2021/09/19 11:06:02;;;;;;;3.70;2.72;;;;;;;;;;5093004;28;20024;-62
2021/09/19 11:08:36;;;;;;;3.40;2.58;;;;;;;;;;5093070;28;20027;-60
2021/09/19 11:11:07;;;;;;;3.30;2.10;;;;;;;;;;5093168;28;20107;-60
2021/09/19 11:13:45;;;;;;;2.13;2.03;;;;;;;;;;5093019;28;20517;-60
2021/09/19 11:16:25;;;;;;;2.45;2.25;;;;;;;;;;5093098;28;20024;-60
2021/09/19 11:18:51;;;;;;;2.30;2.10;;;;;;;;;;5093054;28;20165;-60
2021/09/19 11:21:20;;;;;;;2.38;2.17;;;;;;;;;;5092961;28;20254;-60
2021/09/19 11:23:47;;;;;;;2.15;1.92;;;;;;;;;;5092800;28;20115;-60
2021/09/19 11:26:22;;;;;;;3.10;2.70;;;;;;;;;;5092942;28;20451;-59
2021/09/19 11:28:48;;;;;;;3.25;2.95;;;;;;;;;;5092804;28;20471;-60
2021/09/19 11:31:15;;;;;;;5.15;2.70;;;;;;;;;;5092788;28;20066;-60
2021/09/19 11:33:40;;;;;;;3.33;3.03;;;;;;;;;;5092845;28;20032;-59
2021/09/19 11:36:08;;;;;;;3.83;2.70;;;;;;;;;;5092697;28;20023;-59
2021/09/19 11:38:38;;;;;;;2.80;2.60;;;;;;;;;;5092793;28;20028;-59
2021/09/19 11:41:04;;;;;;;2.50;2.35;;;;;;;;;;5092813;28;20024;-59
2021/09/19 11:43:31;;;;;;;5.20;3.03;;;;;;;;;;5092295;28;20406;-59
2021/09/19 11:45:57;;;;;;;3.35;3.05;;;;;;;;;;5092770;28;20028;-59
2021/09/19 11:48:23;;;;;;;4.03;3.33;;;;;;;;;;5092719;28;20024;-60
2021/09/19 11:50:50;;;;;;;6.32;2.63;;;;;;;;;;5093220;28;20487;-62
2021/09/19 11:53:16;;;;;;;3.22;2.95;;;;;;;;;;5096220;28;20016;-62
2021/09/19 11:59:17;;;;;;;2.47;2.28;;;;;;;;;;5096295;28;20058;-62
2021/09/19 12:01:43;;;;;;;3.53;3.22;;;;;;;;;;5095005;28;20038;-62
2021/09/19 12:04:10;;;;;;;3.55;3.25;;;;;;;;;;5096120;28;20446;-62
2021/09/19 12:06:36;;;;;;;3.92;2.90;;;;;;;;;;5096036;28;20038;-62
2021/09/19 12:09:02;;;;;;;3.92;3.05;;;;;;;;;;5096027;28;20024;-62
2021/09/19 12:11:37;;;;;;;7.00;2.63;;;;;;;;;;5095900;28;20020;-63
2021/09/19 12:14:09;;;;;;;2.78;2.58;;;;;;;;;;5095972;28;20031;-62
2021/09/19 12:16:35;;;;;;;3.58;2.78;;;;;;;;;;5095967;28;20028;-62
2021/09/19 12:19:01;;;;;;;6.07;2.80;;;;;;;;;;5094839;28;20379;-62
2021/09/19 12:21:27;;;;;;;2.95;2.75;;;;;;;;;;5094520;28;20024;-62
2021/09/19 12:23:53;;;;;;;3.40;2.88;;;;;;;;;;5094388;28;20416;-62
2021/09/19 12:26:23;;;;;;;3.10;2.80;;;;;;;;;;5095711;28;20031;-63
2021/09/19 12:28:53;;;;;;;3.80;2.63;;;;;;;;;;5095521;28;20031;-61
2021/09/19 12:31:41;;;;;;;2.83;2.63;;;;;;;;;;5095469;28;20039;-62
2021/09/19 12:34:11;;;;;;;2.92;2.30;;;;;;;;;;5094221;28;20134;-62
2021/09/19 12:36:38;;;;;;;3.10;2.90;;;;;;;;;;5095574;28;20012;-63
2021/09/19 12:39:03;;;;;;;2.80;2.60;;;;;;;;;;5095576;28;20487;-62
2021/09/19 12:41:30;;;;;;;2.72;2.53;;;;;;;;;;5095438;28;20023;-62
2021/09/19 12:43:57;;;;;;;2.63;2.42;;;;;;;;;;5094686;28;20435;-62
2021/09/19 12:46:22;;;;;;;2.30;2.20;;;;;;;;;;5095290;28;20494;-62
2021/09/19 12:48:48;;;;;;;3.00;2.47;;;;;;;;;;5095165;28;20020;-61
2021/09/19 12:51:15;;;;;;;2.80;2.55;;;;;;;;;;5093895;28;20479;-62
2021/09/19 12:53:44;;;;;;;3.17;2.40;;;;;;;;;;5095128;28;20028;-62
2021/09/19 12:56:10;;;;;;;2.83;2.63;;;;;;;;;;5095067;28;20012;-62
2021/09/19 12:58:36;;;;;;;2.22;2.13;;;;;;;;;;5094901;28;20081;-63
2021/09/19 13:01:01;;;;;;;2.72;2.53;;;;;;;;;;5095048;28;20016;-62
2021/09/19 13:03:27;;;;;;;3.50;3.22;;;;;;;;;;5094641;28;20032;-62
2021/09/19 13:05:53;;;;;;;2.67;2.47;;;;;;;;;;5094951;28;20028;-62
2021/09/19 13:08:19;;;;;;;3.33;2.33;;;;;;;;;;5094743;28;20032;-62
2021/09/19 13:10:45;;;;;;;3.28;2.20;;;;;;;;;;5094822;28;20073;-62
2021/09/19 13:13:11;;;;;;;2.85;2.65;;;;;;;;;;5093473;28;20067;-62
2021/09/19 13:15:37;;;;;;;2.50;2.30;;;;;;;;;;5094700;28;20027;-62
2021/09/19 13:18:03;;;;;;;2.63;2.22;;;;;;;;;;5094625;28;20020;-62
2021/09/19 13:20:29;;;;;;;2.55;2.17;;;;;;;;;;5094526;28;20020;-62
2021/09/19 13:22:55;;;;;;;2.75;2.45;;;;;;;;;;5094497;28;20047;-62
2021/09/19 13:25:21;;;;;;;3.33;2.53;;;;;;;;;;5094477;28;20039;-62
2021/09/19 13:27:47;;;;;;;2.40;2.20;;;;;;;;;;5094526;28;20069;-62
2021/09/19 13:30:13;;;;;;;2.75;2.55;;;;;;;;;;5094438;28;20024;-62
2021/09/19 13:32:39;;;;;;;2.95;2.40;;;;;;;;;;5094245;28;20039;-62
2021/09/19 13:35:04;;;;;;;2.53;2.33;;;;;;;;;;5094228;28;20081;-61
2021/09/19 13:37:31;;;;;;;2.75;2.55;;;;;;;;;;5093040;28;20111;-62
2021/09/19 13:39:56;;;;;;;3.90;2.40;;;;;;;;;;5092890;28;20418;-62
2021/09/19 13:42:22;;;;;;;2.22;2.10;;;;;;;;;;5092712;28;20032;-62
2021/09/19 13:44:47;;;;;;;3.65;2.47;;;;;;;;;;5075889;28;20079;-62
2021/09/19 13:47:13;;;;;;;3.40;2.42;;;;;;;;;;5094101;28;20580;-62
2021/09/19 13:49:40;;;;;;;2.58;2.22;;;;;;;;;;5094094;28;20028;-61
2021/09/19 13:52:05;;;;;;;2.83;2.50;;;;;;;;;;5094052;28;20027;-62
2021/09/19 13:54:31;;;;;;;2.80;2.60;;;;;;;;;;5094069;28;20019;-60
2021/09/19 13:56:57;;;;;;;4.18;2.70;;;;;;;;;;5093878;28;20031;-59
2021/09/19 13:59:23;;;;;;;2.63;2.38;;;;;;;;;;5093984;28;20020;-60
2021/09/19 14:01:50;;;;;;;2.60;2.40;;;;;;;;;;5093843;28;20032;-59
2021/09/19 14:04:16;;;;;;;2.92;2.60;;;;;;;;;;5093819;28;20027;-60
2021/09/19 14:06:42;;;;;;;4.15;2.60;;;;;;;;;;5093873;28;20119;-60
2021/09/19 14:09:07;;;;;;;3.40;2.60;;;;;;;;;;5093852;28;20103;-60
2021/09/19 14:11:34;;;;;;;2.70;2.47;;;;;;;;;;5093651;28;20051;-60
2021/09/19 14:14:00;;;;;;;4.55;3.22;;;;;;;;;;5093066;28;20020;-60
2021/09/19 14:16:26;;;;;;;6.45;2.80;;;;;;;;;;5093708;28;20024;-59
2021/09/19 14:18:51;;;;;;;2.75;2.55;;;;;;;;;;5093708;28;20027;-59
2021/09/19 14:21:17;;;;;;;2.55;2.35;;;;;;;;;;5093519;28;20470;-59
2021/09/19 14:23:42;;;;;;;4.53;2.65;;;;;;;;;;5093561;28;20016;-60
2021/09/19 14:26:08;;;;;;;3.55;2.42;;;;;;;;;;5092264;28;20028;-60
2021/09/19 14:28:33;;;;;;;2.78;2.53;;;;;;;;;;5093439;28;20085;-59
2021/09/19 14:30:59;;;;;;;23.33;9.57;;;;;;;;;;5093396;28;20035;-60
2021/09/19 14:33:24;;;;;;;4.72;3.20;;;;;;;;;;5093330;28;20039;-60
2021/09/19 14:35:50;;;;;;;4.13;2.90;;;;;;;;;;5093014;28;20016;-62
2021/09/19 14:38:15;;;;;;;3.00;2.70;;;;;;;;;;5092254;28;20023;-62
2021/09/19 14:40:41;;;;;;;3.03;2.72;;;;;;;;;;5093243;28;20073;-62
2021/09/19 14:43:06;;;;;;;3.60;2.78;;;;;;;;;;5092867;28;20040;-62
2021/09/19 14:45:34;;;;;;;2.72;2.53;;;;;;;;;;5093180;28;20047;-62